createdAt,value
2023-03-08T00:01:36.800Z,98870.44
2023-03-08T00:04:03.697Z,98866.84
2023-03-08T00:06:30.824Z,98868.34
2023-03-08T00:08:59.235Z,98856.22
2023-03-08T00:11:26.828Z,98849.13
2023-03-08T00:13:53.966Z,98841.19
2023-03-08T00:16:20.825Z,98853.56
2023-03-08T00:18:48.447Z,98855.66
2023-03-08T00:21:18.523Z,98856.72
2023-03-08T00:23:45.574Z,98861.25
2023-03-08T00:26:13.463Z,98873.50
2023-03-08T00:28:40.686Z,98877.00
2023-03-08T00:31:11.220Z,98888.88
2023-03-08T00:33:38.674Z,98881.41
2023-03-08T00:36:06.291Z,98872.56
2023-03-08T00:38:35.474Z,98877.81
2023-03-08T00:41:02.768Z,98875.59
2023-03-08T00:43:32.440Z,98878.50
2023-03-08T00:46:03.486Z,98878.50
2023-03-08T00:48:30.256Z,98887.50
2023-03-08T00:50:57.064Z,98890.16
2023-03-08T00:53:24.151Z,98891.56
2023-03-08T00:55:54.780Z,98887.84
2023-03-08T00:58:23.638Z,98881.78
2023-03-08T01:00:51.013Z,98886.28
2023-03-08T01:03:18.263Z,98875.56
2023-03-08T01:05:48.136Z,98879.66
2023-03-08T01:08:16.698Z,98869.16
2023-03-08T01:10:50.033Z,98873.09
2023-03-08T01:13:18.116Z,98875.22
2023-03-08T01:15:44.895Z,98873.47
2023-03-08T01:18:11.726Z,98873.47
2023-03-08T01:20:38.459Z,98880.22
2023-03-08T01:23:05.831Z,98871.38
2023-03-08T01:25:32.585Z,98878.59
2023-03-08T01:27:59.389Z,98869.28
2023-03-08T01:30:27.090Z,98877.06
2023-03-08T01:32:54.015Z,98875.19
2023-03-08T01:35:20.847Z,98887.00
2023-03-08T01:37:53.704Z,98882.53
2023-03-08T01:40:22.580Z,98881.84
2023-03-08T01:42:49.580Z,98877.31
2023-03-08T01:45:53.808Z,98873.25
2023-03-08T01:48:28.134Z,98876.84
2023-03-08T01:51:03.142Z,98883.50
2023-03-08T01:53:31.454Z,98887.78
2023-03-08T01:55:58.416Z,98896.91
2023-03-08T01:58:26.184Z,98901.69
2023-03-08T02:00:53.063Z,98907.16
2023-03-08T02:03:20.383Z,98905.19
2023-03-08T02:05:49.181Z,98910.31
2023-03-08T02:08:19.955Z,98908.66
2023-03-08T02:10:47.460Z,98904.47
2023-03-08T02:13:15.949Z,98904.25
2023-03-08T02:15:44.411Z,98899.59
2023-03-08T02:18:11.774Z,98907.75
2023-03-08T02:20:41.227Z,98903.09
2023-03-08T02:23:23.662Z,98899.84
2023-03-08T02:26:03.878Z,98906.38
2023-03-08T02:28:32.447Z,98899.16
2023-03-08T02:30:59.419Z,98896.09
2023-03-08T02:33:26.350Z,98891.56
2023-03-08T02:35:53.481Z,98908.00
2023-03-08T02:38:21.994Z,98903.69
2023-03-08T02:40:51.655Z,98908.56
2023-03-08T02:43:19.091Z,98914.88
2023-03-08T02:45:46.305Z,98918.50
2023-03-08T02:48:13.861Z,98906.00
2023-03-08T02:50:40.713Z,98908.13
2023-03-08T02:53:08.364Z,98911.13
2023-03-08T02:55:40.014Z,98907.53
2023-03-08T02:58:10.781Z,98902.63
2023-03-08T03:00:38.723Z,98903.06
2023-03-08T03:03:05.692Z,98904.72
2023-03-08T03:05:32.614Z,98903.91
2023-03-08T03:08:02.466Z,98906.59
2023-03-08T03:10:30.192Z,98898.66
2023-03-08T03:12:57.161Z,98903.91
2023-03-08T03:15:28.005Z,98906.03
2023-03-08T03:17:58.357Z,98897.63
2023-03-08T03:20:26.032Z,98904.25
2023-03-08T03:22:52.867Z,98901.47
2023-03-08T03:25:24.375Z,98904.25
2023-03-08T03:27:51.608Z,98900.19
2023-03-08T03:30:19.086Z,98910.31
2023-03-08T03:32:46.474Z,98908.09
2023-03-08T03:35:17.045Z,98910.31
2023-03-08T03:37:44.173Z,98908.81
2023-03-08T03:40:14.344Z,98923.28
2023-03-08T03:42:43.712Z,98923.38
2023-03-08T03:45:18.515Z,98927.63
2023-03-08T03:47:45.901Z,98927.75
2023-03-08T03:50:12.884Z,98937.22
2023-03-08T03:52:50.092Z,98930.06
2023-03-08T03:55:17.089Z,98931.44
2023-03-08T03:57:45.057Z,98933.28
2023-03-08T04:00:16.306Z,98938.41
2023-03-08T04:02:49.651Z,98937.66
2023-03-08T04:05:18.977Z,98942.97
2023-03-08T04:07:50.057Z,98939.75
2023-03-08T04:10:18.705Z,98940.97
2023-03-08T04:12:49.595Z,98944.69
2023-03-08T04:15:18.473Z,98954.34
2023-03-08T04:17:45.996Z,98956.22
2023-03-08T04:20:14.629Z,98965.63
2023-03-08T04:22:47.363Z,98964.53
2023-03-08T04:25:20.800Z,98967.13
2023-03-08T04:27:56.113Z,98970.63
2023-03-08T04:30:22.986Z,98970.69
2023-03-08T04:32:51.633Z,98982.09
2023-03-08T04:35:21.328Z,98986.63
2023-03-08T04:37:51.792Z,98985.34
2023-03-08T04:40:21.877Z,98987.91
2023-03-08T04:42:54.915Z,98989.97
2023-03-08T04:45:26.720Z,98979.72
2023-03-08T04:47:56.312Z,98979.06
2023-03-08T04:50:23.773Z,98986.19
2023-03-08T04:52:52.654Z,98975.50
2023-03-08T04:55:19.534Z,98987.81
2023-03-08T04:57:46.721Z,98994.75
2023-03-08T05:00:14.096Z,98996.16
2023-03-08T05:02:42.853Z,98993.34
2023-03-08T05:05:14.337Z,99000.19
2023-03-08T05:07:41.969Z,99000.03
2023-03-08T05:10:09.314Z,99003.75
2023-03-08T05:12:36.163Z,99000.19
2023-03-08T05:15:05.188Z,99007.53
2023-03-08T05:17:32.082Z,99002.56
2023-03-08T05:19:59.198Z,99008.59
2023-03-08T05:22:37.132Z,99011.81
2023-03-08T05:25:08.657Z,99004.50
2023-03-08T05:27:36.075Z,99003.59
2023-03-08T05:30:05.693Z,99004.84
2023-03-08T05:32:33.110Z,99011.63
2023-03-08T05:34:59.989Z,99004.19
2023-03-08T05:37:33.577Z,99016.53
2023-03-08T05:40:06.058Z,99011.97
2023-03-08T05:42:35.109Z,99027.06
2023-03-08T05:45:06.327Z,99034.63
2023-03-08T05:47:37.722Z,99030.56
2023-03-08T05:50:07.882Z,99030.22
2023-03-08T05:52:37.132Z,99034.88
2023-03-08T05:55:04.317Z,99036.47
2023-03-08T05:57:31.207Z,99039.69
2023-03-08T05:59:58.537Z,99039.56
2023-03-08T06:02:25.624Z,99045.22
2023-03-08T06:04:54.693Z,99041.47
2023-03-08T06:07:23.759Z,99046.81
2023-03-08T06:09:56.443Z,99043.38
2023-03-08T06:12:24.191Z,99047.84
2023-03-08T06:14:54.622Z,99051.28
2023-03-08T06:17:24.513Z,99055.72
2023-03-08T06:19:52.402Z,99060.34
2023-03-08T06:22:19.581Z,99059.50
2023-03-08T06:24:49.962Z,99053.72
2023-03-08T06:27:23.248Z,99059.88
2023-03-08T06:29:52.319Z,99064.50
2023-03-08T06:32:21.280Z,99058.69
2023-03-08T06:34:48.232Z,99067.84
2023-03-08T06:37:15.273Z,99071.81
2023-03-08T06:39:42.322Z,99066.50
2023-03-08T06:42:09.300Z,99075.50
2023-03-08T06:44:37.610Z,99072.28
2023-03-08T06:47:05.955Z,99072.66
2023-03-08T06:49:32.820Z,99078.03
2023-03-08T06:51:59.675Z,99076.44
2023-03-08T06:54:27.777Z,99079.34
2023-03-08T06:56:54.586Z,99080.78
2023-03-08T06:59:21.418Z,99071.44
2023-03-08T07:01:48.313Z,99075.41
2023-03-08T07:04:15.201Z,99073.53
2023-03-08T07:06:42.187Z,99080.91
2023-03-08T07:09:09.130Z,99093.53
2023-03-08T07:11:35.997Z,99099.47
2023-03-08T07:14:02.890Z,99096.19
2023-03-08T07:16:29.852Z,99097.13
2023-03-08T07:18:57.175Z,99092.44
2023-03-08T07:21:24.634Z,99099.94
2023-03-08T07:23:53.200Z,99099.34
2023-03-08T07:26:20.078Z,99098.38
2023-03-08T07:28:51.388Z,99099.66
2023-03-08T07:31:18.840Z,99093.09
2023-03-08T07:33:45.992Z,99088.34
2023-03-08T07:36:13.589Z,99091.56
2023-03-08T07:38:40.477Z,99093.69
2023-03-08T07:41:07.380Z,99094.63
2023-03-08T07:43:34.439Z,99095.75
2023-03-08T07:46:09.694Z,99093.69
2023-03-08T07:48:36.831Z,99096.00
2023-03-08T07:51:09.629Z,99093.97
2023-03-08T07:53:37.817Z,99094.72
2023-03-08T07:56:05.554Z,99099.69
2023-03-08T07:58:32.495Z,99101.72
2023-03-08T08:00:59.404Z,99101.25
2023-03-08T08:03:26.605Z,99095.50
2023-03-08T08:05:53.499Z,99096.91
2023-03-08T08:08:20.519Z,99094.84
2023-03-08T08:10:47.371Z,99098.69
2023-03-08T08:13:14.421Z,99097.06
2023-03-08T08:15:41.296Z,99094.06
2023-03-08T08:18:08.292Z,99091.44
2023-03-08T08:20:35.389Z,99101.00
2023-03-08T08:23:02.258Z,99098.63
2023-03-08T08:25:29.173Z,99099.28
2023-03-08T08:27:56.142Z,99108.75
2023-03-08T08:30:23.037Z,99106.47
2023-03-08T08:32:49.953Z,99105.31
2023-03-08T08:35:17.086Z,99106.38
2023-03-08T08:37:43.958Z,99098.53
2023-03-08T08:40:12.301Z,99106.22
2023-03-08T08:42:39.212Z,99098.75
2023-03-08T08:45:06.790Z,99099.25
2023-03-08T08:47:33.819Z,99096.84
2023-03-08T08:50:00.679Z,99092.34
2023-03-08T08:52:27.520Z,99095.22
2023-03-08T08:54:54.413Z,99090.84
2023-03-08T08:57:21.436Z,99084.53
2023-03-08T08:59:48.314Z,99084.53
2023-03-08T09:02:15.561Z,99086.75
2023-03-08T09:04:42.663Z,99080.28
2023-03-08T09:07:11.414Z,99083.38
2023-03-08T09:09:38.166Z,99077.09
2023-03-08T09:12:05.383Z,99073.78
2023-03-08T09:14:32.168Z,99083.06
2023-03-08T09:16:59.101Z,99071.66
2023-03-08T09:19:26.106Z,99081.19
2023-03-08T09:21:53.424Z,99078.53
2023-03-08T09:24:20.288Z,99078.91
2023-03-08T09:26:47.185Z,99068.91
2023-03-08T09:29:14.136Z,99074.38
2023-03-08T09:31:42.695Z,99076.38
2023-03-08T09:34:11.590Z,99069.59
2023-03-08T09:36:41.600Z,99072.44
2023-03-08T09:39:09.547Z,99067.78
2023-03-08T09:41:44.907Z,99068.28
2023-03-08T09:44:44.076Z,99052.19
2023-03-08T09:47:21.756Z,99059.97
2023-03-08T09:49:52.198Z,99058.50
2023-03-08T09:52:22.005Z,99046.13
2023-03-08T09:54:50.977Z,99047.84
2023-03-08T09:57:29.357Z,99048.25
2023-03-08T09:59:59.161Z,99050.84
2023-03-08T10:02:46.932Z,99052.53
2023-03-08T10:05:36.437Z,99057.75
2023-03-08T10:08:11.350Z,99057.31
2023-03-08T10:10:53.618Z,99066.38
2023-03-08T10:13:41.988Z,99041.53
2023-03-08T10:16:26.140Z,99073.19
2023-03-08T10:19:00.032Z,99056.25
2023-03-08T10:21:28.261Z,99060.13
2023-03-08T10:24:07.371Z,99060.56
2023-03-08T10:26:34.813Z,99065.78
2023-03-08T10:29:01.618Z,99064.16
2023-03-08T10:31:30.804Z,99060.47
2023-03-08T10:34:07.332Z,99053.19
2023-03-08T10:36:34.863Z,99057.31
2023-03-08T10:39:11.446Z,99052.78
2023-03-08T10:41:44.865Z,99048.97
2023-03-08T10:44:42.825Z,99043.03
2023-03-08T10:47:33.202Z,99046.50
2023-03-08T10:50:12.553Z,99036.22
2023-03-08T10:52:39.619Z,99031.66
2023-03-08T10:55:09.550Z,99034.09
2023-03-08T10:57:37.589Z,99034.63
2023-03-08T11:00:33.501Z,99031.91
2023-03-08T11:03:17.389Z,99018.16
2023-03-08T11:06:14.228Z,99013.53
2023-03-08T11:08:55.615Z,99011.09
2023-03-08T11:11:22.700Z,99008.38
2023-03-08T11:13:52.214Z,99000.47
2023-03-08T11:16:22.190Z,98998.59
2023-03-08T11:19:00.920Z,98992.59
2023-03-08T11:21:43.864Z,98987.91
2023-03-08T11:24:18.892Z,98992.63
2023-03-08T11:27:41.163Z,98983.56
2023-03-08T11:30:13.933Z,98981.28
2023-03-08T11:32:41.216Z,98980.22
2023-03-08T11:35:17.308Z,98979.69
2023-03-08T11:37:50.895Z,98968.78
2023-03-08T11:41:04.450Z,98965.72
2023-03-08T11:43:46.591Z,98955.38
2023-03-08T11:46:25.308Z,98949.84
2023-03-08T11:49:01.962Z,98952.41
2023-03-08T11:51:40.552Z,98952.50
2023-03-08T11:54:16.217Z,98953.88
2023-03-08T11:56:45.737Z,98947.31
2023-03-08T11:59:37.205Z,98933.31
2023-03-08T12:02:06.797Z,98944.06
2023-03-08T12:04:55.092Z,98938.44
2023-03-08T12:07:25.138Z,98930.28
2023-03-08T12:09:59.022Z,98933.34
2023-03-08T12:12:35.935Z,98928.22
2023-03-08T12:15:02.935Z,98929.06
2023-03-08T12:17:35.610Z,98920.38
2023-03-08T12:20:08.305Z,98924.69
2023-03-08T12:22:46.164Z,98912.72
2023-03-08T12:25:22.367Z,98910.50
2023-03-08T12:28:20.719Z,98906.94
2023-03-08T12:31:26.589Z,98908.81
2023-03-08T12:33:55.211Z,98898.44
2023-03-08T12:36:22.861Z,98901.03
2023-03-08T12:38:56.694Z,98896.97
2023-03-08T12:41:30.010Z,98889.94
2023-03-08T12:44:24.569Z,98894.59
2023-03-08T12:47:02.711Z,98902.69
2023-03-08T12:49:37.855Z,98882.03
2023-03-08T12:52:20.128Z,98880.94
2023-03-08T12:55:09.276Z,98879.06
2023-03-08T12:57:45.473Z,98879.38
2023-03-08T13:00:35.163Z,98872.88
2023-03-08T13:03:25.181Z,98876.03
2023-03-08T13:05:52.380Z,98875.31
2023-03-08T13:08:43.299Z,98887.47
2023-03-08T13:11:15.033Z,98891.41
2023-03-08T13:14:02.283Z,98897.50
2023-03-08T13:16:40.032Z,98892.44
2023-03-08T13:19:21.311Z,98888.34
2023-03-08T13:21:54.214Z,98886.53
2023-03-08T13:24:37.291Z,98880.06
2023-03-08T13:27:28.595Z,98881.09
2023-03-08T13:30:18.138Z,98885.63
2023-03-08T13:32:45.369Z,98882.41
2023-03-08T13:35:16.326Z,98882.78
2023-03-08T13:37:43.408Z,98883.41
2023-03-08T13:40:19.791Z,98873.09
2023-03-08T13:42:57.015Z,98869.03
2023-03-08T13:45:25.034Z,98874.47
2023-03-08T13:47:53.330Z,98860.94
2023-03-08T13:50:48.079Z,98864.19
2023-03-08T13:53:22.740Z,98866.63
2023-03-08T13:55:53.429Z,98861.22
2023-03-08T13:58:32.349Z,98855.50
2023-03-08T14:01:22.659Z,98856.63
2023-03-08T14:03:50.834Z,98868.09
2023-03-08T14:06:30.333Z,98865.38
2023-03-08T14:09:00.656Z,98853.44
2023-03-08T14:11:33.928Z,98846.94
2023-03-08T14:14:04.759Z,98855.59
2023-03-08T14:16:37.515Z,98865.06
2023-03-08T14:19:16.553Z,98857.16
2023-03-08T14:21:55.611Z,98869.13
2023-03-08T14:24:28.232Z,98862.03
2023-03-08T14:27:00.531Z,98866.31
2023-03-08T14:29:29.894Z,98860.75
2023-03-08T14:32:00.813Z,98871.34
2023-03-08T14:34:29.683Z,98888.97
2023-03-08T14:37:11.833Z,98909.03
2023-03-08T14:39:43.080Z,98908.22
2023-03-08T14:42:49.605Z,98907.41
2023-03-08T14:45:22.967Z,98909.03
2023-03-08T14:47:58.324Z,98911.19
2023-03-08T14:50:28.295Z,98913.63
2023-03-08T14:52:57.749Z,98921.50
2023-03-08T14:55:27.610Z,98902.00
2023-03-08T14:58:09.910Z,98901.69
2023-03-08T15:00:37.178Z,98900.66
2023-03-08T15:03:04.019Z,98906.06
2023-03-08T15:05:31.428Z,98911.16
2023-03-08T15:08:00.234Z,98903.03
2023-03-08T15:10:34.012Z,98910.38
2023-03-08T15:13:01.157Z,98904.13
2023-03-08T15:15:28.055Z,98907.38
2023-03-08T15:17:55.033Z,98915.75
2023-03-08T15:20:22.443Z,98917.06
2023-03-08T15:22:53.203Z,98915.41
2023-03-08T15:25:27.913Z,98918.13
2023-03-08T15:27:55.262Z,98924.06
2023-03-08T15:30:25.686Z,98923.00
2023-03-08T15:32:54.508Z,98921.09
2023-03-08T15:35:22.151Z,98923.50
2023-03-08T15:37:49.481Z,98907.53
2023-03-08T15:40:22.279Z,98913.47
2023-03-08T15:42:49.063Z,98905.63
2023-03-08T15:45:16.275Z,98914.56
2023-03-08T15:47:43.509Z,98915.91
2023-03-08T15:50:16.372Z,98915.66
2023-03-08T15:52:44.095Z,98906.97
2023-03-08T15:55:14.780Z,98898.84
2023-03-08T15:57:42.212Z,98894.47
2023-03-08T16:00:12.637Z,98889.91
2023-03-08T16:02:40.514Z,98881.72
2023-03-08T16:05:09.570Z,98879.84
2023-03-08T16:07:36.967Z,98886.28
2023-03-08T16:10:05.741Z,98886.28
2023-03-08T16:12:32.605Z,98880.91
2023-03-08T16:14:59.555Z,98888.97
2023-03-08T16:17:28.871Z,98884.91
2023-03-08T16:19:55.833Z,98884.91
2023-03-08T16:22:23.022Z,98875.41
2023-03-08T16:24:49.947Z,98879.44
2023-03-08T16:27:16.858Z,98874.53
2023-03-08T16:29:43.734Z,98882.06
2023-03-08T16:32:15.172Z,98886.63
2023-03-08T16:34:42.058Z,98889.34
2023-03-08T16:37:08.885Z,98887.97
2023-03-08T16:39:35.739Z,98893.38
2023-03-08T16:42:02.719Z,98889.56
2023-03-08T16:44:30.616Z,98888.47
2023-03-08T16:46:57.644Z,98880.63
2023-03-08T16:49:28.573Z,98887.06
2023-03-08T16:51:56.203Z,98881.94
2023-03-08T16:54:23.370Z,98883.53
2023-03-08T16:56:50.734Z,98893.03
2023-03-08T16:59:17.960Z,98893.03
2023-03-08T17:01:45.022Z,98893.00
2023-03-08T17:04:11.966Z,98903.78
2023-03-08T17:06:39.516Z,98905.13
2023-03-08T17:09:06.469Z,98908.59
2023-03-08T17:11:35.799Z,98907.53
2023-03-08T17:14:07.836Z,98911.25
2023-03-08T17:16:35.779Z,98918.00
2023-03-08T17:19:05.731Z,98921.31
2023-03-08T17:21:38.519Z,98916.69
2023-03-08T17:24:07.997Z,98915.28
2023-03-08T17:26:40.354Z,98912.88
2023-03-08T17:29:07.443Z,98915.03
2023-03-08T17:31:34.354Z,98913.41
2023-03-08T17:34:01.382Z,98910.66
2023-03-08T17:36:28.438Z,98907.75
2023-03-08T17:38:55.818Z,98916.63
2023-03-08T17:41:23.279Z,98919.31
2023-03-08T17:43:50.397Z,98921.50
2023-03-08T17:46:23.066Z,98921.03
2023-03-08T17:48:53.454Z,98920.19
2023-03-08T17:51:30.124Z,98914.00
2023-03-08T17:53:58.178Z,98914.00
2023-03-08T17:56:29.703Z,98914.22
2023-03-08T17:58:58.537Z,98919.06
2023-03-08T18:01:27.716Z,98910.38
2023-03-08T18:03:55.661Z,98907.63
2023-03-08T18:06:29.813Z,98907.91
2023-03-08T18:08:57.914Z,98912.72
2023-03-08T18:11:25.118Z,98903.28
2023-03-08T18:13:52.850Z,98916.22
2023-03-08T18:16:21.269Z,98904.94
2023-03-08T18:18:49.928Z,98911.66
2023-03-08T18:21:20.794Z,98910.03
2023-03-08T18:23:47.953Z,98908.41
2023-03-08T18:26:17.077Z,98900.59
2023-03-08T18:28:44.109Z,98896.69
2023-03-08T18:31:15.919Z,98904.41
2023-03-08T18:33:42.913Z,98905.25
2023-03-08T18:36:09.935Z,98902.03
2023-03-08T18:38:36.984Z,98899.53
2023-03-08T18:41:25.838Z,98904.34
2023-03-08T18:43:55.017Z,98900.88
2023-03-08T18:46:29.301Z,98911.66
2023-03-08T18:49:06.958Z,98909.56
2023-03-08T18:51:36.347Z,98914.94
2023-03-08T18:54:03.617Z,98911.34
2023-03-08T18:56:31.367Z,98893.78
2023-03-08T18:59:00.453Z,98886.78
2023-03-08T19:01:29.367Z,98888.19
2023-03-08T19:03:58.146Z,98890.31
2023-03-08T19:06:25.362Z,98895.47
2023-03-08T19:08:52.146Z,98887.09
2023-03-08T19:11:20.106Z,98900.06
2023-03-08T19:13:47.843Z,98896.28
2023-03-08T19:16:35.813Z,98908.66
2023-03-08T19:19:12.353Z,98905.47
2023-03-08T19:21:42.441Z,98911.34
2023-03-08T19:24:12.361Z,98917.59
2023-03-08T19:26:41.273Z,98919.34
2023-03-08T19:29:13.923Z,98915.03
2023-03-08T19:32:05.485Z,98921.25
2023-03-08T19:34:37.715Z,98912.63
2023-03-08T19:37:06.146Z,98905.38
2023-03-08T19:39:35.587Z,98914.75
2023-03-08T19:42:14.520Z,98900.53
2023-03-08T19:44:41.480Z,98892.66
2023-03-08T19:47:09.566Z,98893.44
2023-03-08T19:49:38.821Z,98905.34
2023-03-08T19:52:07.984Z,98904.53
2023-03-08T19:54:34.969Z,98886.78
2023-03-08T19:57:02.660Z,98888.28
2023-03-08T19:59:29.832Z,98900.38
2023-03-08T20:01:57.361Z,98895.50
2023-03-08T20:04:25.026Z,98890.38
2023-03-08T20:06:52.284Z,98901.63
2023-03-08T20:09:21.812Z,98895.38
2023-03-08T20:11:53.203Z,98897.50
2023-03-08T20:14:20.748Z,98908.63
2023-03-08T20:16:48.032Z,98913.22
2023-03-08T20:19:15.064Z,98911.09
2023-03-08T20:21:41.882Z,98913.16
2023-03-08T20:24:09.125Z,98907.59
2023-03-08T20:26:38.051Z,98916.53
2023-03-08T20:29:05.501Z,98906.00
2023-03-08T20:31:32.849Z,98907.53
2023-03-08T20:34:00.145Z,98907.53
2023-03-08T20:36:28.527Z,98903.47
2023-03-08T20:38:57.943Z,98906.81
2023-03-08T20:41:26.962Z,98902.00
2023-03-08T20:43:56.793Z,98896.13
2023-03-08T20:46:29.664Z,98894.47
2023-03-08T20:48:57.100Z,98905.09
2023-03-08T20:51:24.420Z,98902.31
2023-03-08T20:53:53.355Z,98908.22
2023-03-08T20:56:21.948Z,98909.03
2023-03-08T20:58:48.887Z,98902.75
2023-03-08T21:01:27.863Z,98897.41
2023-03-08T21:03:54.911Z,98884.78
2023-03-08T21:06:25.158Z,98895.78
2023-03-08T21:08:52.424Z,98893.69
2023-03-08T21:11:20.698Z,98899.34
2023-03-08T21:13:49.346Z,98903.38
2023-03-08T21:16:18.038Z,98902.84
2023-03-08T21:18:49.190Z,98897.41
2023-03-08T21:21:27.445Z,98895.09
2023-03-08T21:24:00.042Z,98892.38
2023-03-08T21:26:28.615Z,98884.31
2023-03-08T21:28:57.452Z,98888.56
2023-03-08T21:31:25.191Z,98889.38
2023-03-08T21:33:53.622Z,98883.94
2023-03-08T21:36:21.005Z,98877.50
2023-03-08T21:38:54.965Z,98870.75
2023-03-08T21:41:27.464Z,98868.41
2023-03-08T21:43:54.534Z,98871.34
2023-03-08T21:46:21.472Z,98874.53
2023-03-08T21:48:48.514Z,98870.22
2023-03-08T21:51:15.797Z,98867.72
2023-03-08T21:53:43.581Z,98867.53
2023-03-08T21:56:13.251Z,98851.41
2023-03-08T21:58:40.647Z,98852.56
2023-03-08T22:01:17.104Z,98840.63
2023-03-08T22:03:43.961Z,98856.22
2023-03-08T22:06:10.734Z,98844.69
2023-03-08T22:08:37.591Z,98844.44
2023-03-08T22:11:06.207Z,98851.91
2023-03-08T22:13:33.156Z,98845.88
2023-03-08T22:16:00.100Z,98837.75
2023-03-08T22:18:27.038Z,98837.56
2023-03-08T22:20:54.771Z,98828.66
2023-03-08T22:23:21.937Z,98834.94
2023-03-08T22:25:48.942Z,98824.88
2023-03-08T22:28:16.005Z,98821.19
2023-03-08T22:30:42.927Z,98820.50
2023-03-08T22:33:09.835Z,98821.03
2023-03-08T22:35:37.045Z,98821.25
2023-03-08T22:38:04.536Z,98829.63
2023-03-08T22:40:31.564Z,98836.25
2023-03-08T22:42:58.443Z,98831.03
2023-03-08T22:45:25.290Z,98824.56
2023-03-08T22:47:52.443Z,98835.03
2023-03-08T22:50:19.308Z,98823.53
2023-03-08T22:52:46.128Z,98822.50
2023-03-08T22:55:12.989Z,98811.91
2023-03-08T22:57:39.885Z,98808.97
2023-03-08T23:00:14.528Z,98797.03
2023-03-08T23:02:42.730Z,98810.88
2023-03-08T23:05:18.795Z,98806.13
2023-03-08T23:07:46.383Z,98802.13
2023-03-08T23:10:14.863Z,98800.28
2023-03-08T23:12:42.302Z,98799.44
2023-03-08T23:15:09.873Z,98800.28
2023-03-08T23:17:36.740Z,98795.88
2023-03-08T23:20:04.557Z,98801.66
2023-03-08T23:22:31.642Z,98803.31
2023-03-08T23:24:58.498Z,98800.88
2023-03-08T23:27:25.374Z,98797.94
2023-03-08T23:29:53.055Z,98798.56
2023-03-08T23:32:20.066Z,98786.88
2023-03-08T23:34:46.917Z,98782.63
2023-03-08T23:37:13.889Z,98788.53
2023-03-08T23:39:40.674Z,98801.78
2023-03-08T23:42:07.685Z,98794.16
2023-03-08T23:44:34.535Z,98806.31
2023-03-08T23:47:01.489Z,98808.19
2023-03-08T23:49:28.338Z,98809.81
2023-03-08T23:51:55.138Z,98812.38
2023-03-08T23:54:21.953Z,98817.66
2023-03-08T23:56:48.930Z,98817.41
2023-03-08T23:59:21.120Z,98810.47
